Time;durP1;ratioP1;P1;durP2;ratioP2;P2;SDS_P1;SDS_P2;PMS_P1;PMS_P2;Temp;Humidity;BMP_temperature;BMP_pressure;BME280_temperature;BME280_humidity;BME280_pressure;Samples;Min_cycle;Max_cycle;Signal;HPM_P1;HPM_P2
2022/02/14 00:01:07;;;;;;;21.70;7.40;;;;;;;0.22;67.27;100256.67;105674;1271;23528;-56
2022/02/14 00:03:35;;;;;;;22.00;6.80;;;;;;;0.22;67.54;100258.33;105700;1271;24960;-58
2022/02/14 00:06:03;;;;;;;23.40;6.90;;;;;;;0.20;67.42;100256.48;105769;1270;25379;-56
2022/02/14 00:08:32;;;;;;;26.90;8.10;;;;;;;0.18;67.17;100255.47;105779;1271;23536;-58
2022/02/14 00:11:00;;;;;;;20.30;6.70;;;;;;;0.16;67.09;100250.55;105798;1271;22544;-57
2022/02/14 00:13:30;;;;;;;25.50;8.40;;;;;;;0.16;67.17;100250.02;105709;1271;22547;-58
2022/02/14 00:15:58;;;;;;;31.30;10.90;;;;;;;0.14;66.90;100250.33;105674;1274;22697;-58
2022/02/14 00:18:26;;;;;;;29.40;7.90;;;;;;;0.14;67.20;100248.93;105873;1271;22565;-56
2022/02/14 00:20:55;;;;;;;30.70;10.10;;;;;;;0.14;67.39;100247.98;105757;1271;22551;-57
2022/02/14 00:23:23;;;;;;;30.40;10.10;;;;;;;0.14;67.38;100246.17;106041;1270;23484;-58
2022/02/14 00:25:52;;;;;;;32.00;12.80;;;;;;;0.13;67.37;100244.63;105852;1270;22561;-57
2022/02/14 00:28:20;;;;;;;33.50;11.70;;;;;;;0.09;67.44;100245.77;105727;1271;24237;-59
2022/02/14 00:30:49;;;;;;;32.20;11.50;;;;;;;0.04;67.65;100245.20;105786;1271;22573;-57
2022/02/14 00:33:17;;;;;;;35.40;14.20;;;;;;;-0.01;67.55;100242.96;105921;1270;25427;-59
2022/02/14 00:35:47;;;;;;;33.70;14.00;;;;;;;-0.07;67.56;100239.57;106051;1271;24427;-58
2022/02/14 00:38:16;;;;;;;34.50;13.70;;;;;;;-0.12;67.85;100238.77;105960;1271;24309;-57
2022/02/14 00:40:44;;;;;;;34.40;13.40;;;;;;;-0.17;67.81;100236.54;105992;1270;22564;-57
2022/02/14 00:43:13;;;;;;;39.90;14.60;;;;;;;-0.20;68.13;100235.15;105897;1271;22538;-57
2022/02/14 00:45:42;;;;;;;41.70;14.40;;;;;;;-0.22;68.24;100235.10;106079;1271;22636;-60
2022/02/14 00:48:11;;;;;;;43.20;14.10;;;;;;;-0.26;68.16;100234.20;105829;1270;22550;-58
2022/02/14 00:50:40;;;;;;;35.10;13.50;;;;;;;-0.30;68.16;100233.91;105912;1271;24326;-60
2022/02/14 00:53:08;;;;;;;40.90;14.40;;;;;;;-0.32;68.30;100236.98;106058;1271;24234;-57
2022/02/14 00:55:39;;;;;;;40.20;13.30;;;;;;;-0.33;68.33;100241.39;105910;1271;24269;-55
2022/02/14 00:58:08;;;;;;;44.10;15.00;;;;;;;-0.35;68.37;100238.74;105904;1271;22542;-57
2022/02/14 01:00:36;;;;;;;35.10;14.20;;;;;;;-0.39;68.16;100238.05;105822;1271;26808;-56
2022/02/14 01:03:05;;;;;;;37.40;13.30;;;;;;;-0.43;68.42;100232.77;105775;1271;24431;-58
2022/02/14 01:05:34;;;;;;;35.90;13.00;;;;;;;-0.44;68.42;100233.18;105805;1271;22631;-61
2022/02/14 01:08:02;;;;;;;41.60;13.60;;;;;;;-0.46;68.65;100234.84;105952;1271;22579;-60
2022/02/14 01:10:31;;;;;;;42.70;15.60;;;;;;;-0.47;68.73;100230.06;105599;1271;22613;-56
2022/02/14 01:13:00;;;;;;;42.20;14.90;;;;;;;-0.49;68.83;100227.27;105893;1270;22553;-58
2022/02/14 01:15:28;;;;;;;38.40;15.10;;;;;;;-0.49;68.88;100234.09;105689;1270;22559;-56
2022/02/14 01:17:57;;;;;;;40.70;13.20;;;;;;;-0.49;68.97;100229.84;105739;1271;22583;-58
2022/02/14 01:20:25;;;;;;;39.20;15.40;;;;;;;-0.52;68.80;100229.95;105786;1271;22560;-55
2022/02/14 01:22:54;;;;;;;38.90;15.00;;;;;;;-0.55;68.97;100223.00;105783;1271;22973;-57
2022/02/14 01:25:22;;;;;;;39.80;14.80;;;;;;;-0.57;68.97;100220.05;105827;1271;22550;-55
2022/02/14 01:27:50;;;;;;;38.00;14.20;;;;;;;-0.59;69.09;100217.15;105796;1270;25551;-57
2022/02/14 01:30:18;;;;;;;44.20;16.60;;;;;;;-0.61;69.09;100208.80;105637;1271;22563;-58
2022/02/14 01:32:47;;;;;;;37.90;14.20;;;;;;;-0.63;69.20;100212.88;105795;1271;22557;-56
2022/02/14 01:35:15;;;;;;;37.40;15.70;;;;;;;-0.66;69.06;100204.54;105884;1271;24375;-57
2022/02/14 01:37:44;;;;;;;40.60;15.90;;;;;;;-0.67;69.09;100199.61;105921;1270;22554;-57
2022/02/14 01:40:14;;;;;;;40.30;17.10;;;;;;;-0.69;69.03;100198.54;106003;1270;22546;-57
2022/02/14 01:42:42;;;;;;;38.70;17.00;;;;;;;-0.72;68.98;100198.72;105899;1270;25305;-58
2022/02/14 01:45:14;;;;;;;41.40;15.80;;;;;;;-0.76;68.86;100200.86;105957;1270;22636;-57
2022/02/14 01:47:43;;;;;;;46.90;16.70;;;;;;;-0.81;69.06;100195.80;105966;1270;25601;-59
2022/02/14 01:50:14;;;;;;;49.90;19.20;;;;;;;-0.82;69.20;100194.88;105755;1271;23066;-58
2022/02/14 01:52:43;;;;;;;50.30;19.00;;;;;;;-0.82;69.28;100185.70;105956;1270;22550;-56
2022/02/14 01:55:13;;;;;;;45.80;18.10;;;;;;;-0.84;69.21;100179.77;105620;1273;25542;-58
2022/02/14 01:57:41;;;;;;;;;;;;;;;-0.85;69.41;100173.11;105807;1270;26687;-58
2022/02/14 02:00:13;;;;;;;44.60;16.00;;;;;;;-0.86;69.45;100168.35;105756;1271;24984;-57
2022/02/14 02:02:42;;;;;;;39.30;15.60;;;;;;;-0.89;69.45;100173.55;105967;1271;24591;-56
2022/02/14 02:05:10;;;;;;;47.70;16.70;;;;;;;-0.90;69.50;100174.80;105712;1271;22593;-58
2022/02/14 02:07:40;;;;;;;40.70;16.10;;;;;;;-0.93;69.36;100172.86;106027;1271;25560;-57
2022/02/14 02:10:12;;;;;;;56.90;18.60;;;;;;;-0.96;69.48;100174.92;105826;1271;22557;-59
2022/02/14 02:12:50;;;;;;;46.50;18.10;;;;;;;-1.00;69.50;100170.96;105983;1270;22739;-56
2022/02/14 02:15:19;;;;;;;53.70;19.60;;;;;;;-1.01;69.58;100164.64;105650;1272;24294;-59
2022/02/14 02:17:48;;;;;;;45.70;18.30;;;;;;;-1.00;69.55;100159.93;105998;1270;24428;-58
2022/02/14 02:20:18;;;;;;;46.60;17.20;;;;;;;-1.02;69.35;100160.42;105830;1271;24469;-58
2022/02/14 02:22:49;;;;;;;39.90;16.90;;;;;;;-1.02;69.52;100157.05;106046;1270;25382;-56
2022/02/14 02:25:18;;;;;;;46.60;18.20;;;;;;;-1.02;69.50;100153.30;105828;1271;24347;-57
2022/02/14 02:27:46;;;;;;;43.30;16.90;;;;;;;-1.02;69.64;100150.55;105791;1271;24546;-57
2022/02/14 02:30:18;;;;;;;41.60;16.30;;;;;;;-1.01;69.47;100149.67;105890;1271;24403;-59
2022/02/14 02:32:48;;;;;;;44.30;17.60;;;;;;;-1.01;69.44;100150.79;105857;1271;24438;-59
2022/02/14 02:35:17;;;;;;;42.00;16.00;;;;;;;-1.04;69.46;100150.50;105699;1271;22728;-57
2022/02/14 02:37:45;;;;;;;41.50;16.10;;;;;;;-1.06;69.51;100146.91;105730;1271;24160;-58
2022/02/14 02:40:14;;;;;;;36.20;14.00;;;;;;;-1.10;69.45;100144.42;105715;1271;22698;-59
2022/02/14 02:42:43;;;;;;;37.30;13.70;;;;;;;-1.12;69.57;100144.52;106106;1270;22564;-58
2022/02/14 02:45:11;;;;;;;37.10;14.50;;;;;;;-1.14;69.66;100139.76;105777;1271;24256;-58
2022/02/14 02:47:40;;;;;;;37.00;12.70;;;;;;;-1.17;69.61;100140.02;105854;1271;22828;-57
2022/02/14 02:50:10;;;;;;;43.90;15.40;;;;;;;-1.22;69.72;100136.69;105941;1271;24214;-57
2022/02/14 02:52:38;;;;;;;46.00;15.50;;;;;;;-1.23;69.85;100129.50;105877;1271;24381;-57
2022/02/14 02:55:08;;;;;;;40.30;15.20;;;;;;;-1.26;69.83;100128.59;105759;1271;25377;-59
2022/02/14 02:57:36;;;;;;;42.60;15.40;;;;;;;-1.30;69.85;100124.62;105877;1270;22559;-57
2022/02/14 03:00:07;;;;;;;39.50;14.60;;;;;;;-1.33;69.96;100117.44;105793;1271;22564;-60
2022/02/14 03:02:36;;;;;;;37.80;13.30;;;;;;;-1.36;69.95;100119.27;105831;1271;22841;-57
2022/02/14 03:05:06;;;;;;;39.10;15.50;;;;;;;-1.38;69.92;100116.46;105763;1271;22755;-58
2022/02/14 03:07:35;;;;;;;37.90;13.20;;;;;;;-1.40;70.00;100116.16;105951;1270;24430;-58
2022/02/14 03:10:05;;;;;;;32.90;12.60;;;;;;;-1.41;70.10;100110.93;105823;1270;24319;-58
2022/02/14 03:12:34;;;;;;;35.80;13.40;;;;;;;-1.43;70.22;100113.05;105967;1271;22538;-60
2022/02/14 03:15:03;;;;;;;34.60;11.80;;;;;;;-1.45;70.12;100114.16;105663;1271;24366;-58
2022/02/14 03:17:31;;;;;;;35.20;12.50;;;;;;;-1.46;70.16;100107.52;105773;1270;25598;-60
2022/02/14 03:19:59;;;;;;;35.10;12.70;;;;;;;-1.48;70.35;100100.40;105659;1271;22691;-58
2022/02/14 03:22:28;;;;;;;32.00;13.40;;;;;;;-1.49;70.34;100098.84;105640;1270;22581;-59
2022/02/14 03:24:56;;;;;;;31.90;11.60;;;;;;;-1.51;70.38;100099.16;105710;1271;22640;-58
2022/02/14 03:27:25;;;;;;;31.10;11.30;;;;;;;-1.51;70.45;100095.20;105789;1271;22688;-58
2022/02/14 03:29:53;;;;;;;31.40;11.30;;;;;;;-1.51;70.42;100089.40;105632;1271;22759;-56
2022/02/14 03:32:22;;;;;;;27.00;11.20;;;;;;;-1.51;70.62;100091.98;105846;1270;22757;-58
2022/02/14 03:34:50;;;;;;;32.00;11.60;;;;;;;-1.51;70.61;100086.89;105764;1271;22549;-59
2022/02/14 03:37:18;;;;;;;28.70;10.70;;;;;;;-1.52;70.66;100089.95;105572;1271;24292;-59
2022/02/14 03:39:47;;;;;;;30.30;11.60;;;;;;;-1.56;70.59;100088.88;105761;1271;24262;-59
2022/02/14 03:42:16;;;;;;;36.20;12.00;;;;;;;-1.58;70.78;100086.86;105724;1271;22638;-58
2022/02/14 03:44:44;;;;;;;37.80;13.80;;;;;;;-1.59;70.94;100086.02;105798;1270;22701;-56
2022/02/14 03:47:13;;;;;;;38.60;15.30;;;;;;;-1.61;71.01;100085.79;105677;1271;24461;-55
2022/02/14 03:49:42;;;;;;;41.50;17.00;;;;;;;-1.64;70.87;100087.69;105590;1270;24487;-58
2022/02/14 03:52:10;;;;;;;43.20;17.80;;;;;;;-1.66;70.94;100086.14;105777;1271;22822;-58
2022/02/14 03:54:40;;;;;;;38.60;16.50;;;;;;;-1.68;70.95;100085.05;105707;1270;24456;-58
2022/02/14 03:57:08;;;;;;;39.00;15.10;;;;;;;-1.69;70.90;100088.58;105640;1270;22667;-59
2022/02/14 03:59:38;;;;;;;36.40;15.70;;;;;;;-1.67;70.98;100090.44;105631;1270;22641;-58
2022/02/14 04:02:06;;;;;;;39.60;14.30;;;;;;;-1.67;70.99;100084.34;105685;1271;25710;-59
2022/02/14 04:04:35;;;;;;;40.20;14.20;;;;;;;-1.67;71.01;100084.80;106221;1267;24190;-61
2022/02/14 04:07:04;;;;;;;36.50;13.70;;;;;;;-1.67;71.05;100086.75;105833;1271;25566;-60
2022/02/14 04:09:33;;;;;;;34.20;13.50;;;;;;;-1.67;71.11;100086.68;105990;1271;25372;-61
2022/02/14 04:12:01;;;;;;;42.70;16.90;;;;;;;-1.68;71.03;100086.45;105787;1273;22709;-61
2022/02/14 04:14:29;;;;;;;57.50;24.60;;;;;;;-1.69;71.10;100082.02;105985;1273;24754;-60
2022/02/14 04:16:58;;;;;;;66.90;27.90;;;;;;;-1.69;71.10;100076.69;105769;1274;22766;-58
2022/02/14 04:19:26;;;;;;;52.40;22.60;;;;;;;-1.71;71.16;100073.42;105919;1274;24221;-60
2022/02/14 04:21:55;;;;;;;49.60;21.30;;;;;;;-1.74;71.05;100071.16;105726;1273;24034;-62
2022/02/14 04:24:23;;;;;;;39.10;17.20;;;;;;;-1.75;71.20;100068.67;105678;1273;24256;-60
2022/02/14 04:26:52;;;;;;;43.60;16.00;;;;;;;-1.76;71.17;100065.78;105979;1273;25714;-61
2022/02/14 04:29:20;;;;;;;37.50;13.70;;;;;;;-1.77;71.19;100069.93;105718;1274;24386;-58
2022/02/14 04:31:49;;;;;;;41.20;13.70;;;;;;;-1.77;71.21;100065.33;105626;1274;22730;-60
2022/02/14 04:34:19;;;;;;;38.90;13.90;;;;;;;-1.77;71.17;100065.88;105822;1273;24321;-61
2022/02/14 04:36:47;;;;;;;41.10;15.10;;;;;;;-1.76;71.26;100060.48;105869;1274;23998;-62
2022/02/14 04:39:16;;;;;;;40.30;16.30;;;;;;;-1.76;71.26;100057.04;105885;1274;22682;-60
2022/02/14 04:41:45;;;;;;;49.30;20.10;;;;;;;-1.78;71.17;100058.61;105840;1273;22898;-60
2022/02/14 04:44:14;;;;;;;101.20;38.60;;;;;;;-1.80;71.19;100056.83;105678;1274;23207;-63
2022/02/14 04:46:44;;;;;;;104.40;39.90;;;;;;;-1.81;71.31;100054.88;105735;1274;24421;-61
2022/02/14 04:49:14;;;;;;;79.70;29.40;;;;;;;-1.82;71.23;100051.58;105990;1273;22647;-62
2022/02/14 04:51:43;;;;;;;64.70;23.90;;;;;;;-1.85;71.41;100053.02;105757;1274;22726;-61
2022/02/14 04:54:12;;;;;;;67.50;25.80;;;;;;;-1.86;71.43;100049.11;105963;1273;22682;-61
2022/02/14 04:56:40;;;;;;;76.00;24.80;;;;;;;-1.88;71.56;100046.93;105890;1273;25688;-60
2022/02/14 04:59:09;;;;;;;61.20;24.30;;;;;;;-1.90;71.49;100042.02;105700;1274;22607;-60
2022/02/14 05:01:38;;;;;;;59.90;24.30;;;;;;;-1.91;71.56;100043.51;105866;1273;22552;-60
2022/02/14 05:04:07;;;;;;;49.30;19.30;;;;;;;-1.92;71.63;100041.16;105928;1273;23389;-61
2022/02/14 05:06:36;;;;;;;49.00;20.90;;;;;;;-1.93;71.69;100042.44;105973;1273;25379;-61
2022/02/14 05:09:05;;;;;;;48.30;19.70;;;;;;;-1.95;71.61;100042.59;105866;1272;24348;-61
2022/02/14 05:11:34;;;;;;;45.30;18.70;;;;;;;-1.96;71.70;100042.69;105813;1273;22618;-62
2022/02/14 05:14:03;;;;;;;42.70;15.70;;;;;;;-1.97;71.76;100046.59;106283;1272;22657;-59
2022/02/14 05:16:31;;;;;;;41.70;13.60;;;;;;;-2.02;71.70;100047.86;105975;1272;25537;-59
2022/02/14 05:19:00;;;;;;;34.30;13.50;;;;;;;-2.06;71.75;100040.15;105793;1273;24368;-61
2022/02/14 05:21:28;;;;;;;53.50;21.00;;;;;;;-2.09;71.87;100037.52;106270;1273;24362;-61
2022/02/14 05:23:56;;;;;;;49.90;19.70;;;;;;;-2.10;71.90;100040.27;105909;1273;22784;-62
2022/02/14 05:26:25;;;;;;;63.70;26.70;;;;;;;-2.12;72.18;100041.21;105660;1273;24279;-59
2022/02/14 05:28:55;;;;;;;53.70;20.90;;;;;;;-2.16;72.10;100037.95;105801;1273;22619;-61
2022/02/14 05:31:24;;;;;;;41.50;17.00;;;;;;;-2.18;72.20;100040.15;105667;1273;25481;-61
2022/02/14 05:33:53;;;;;;;50.60;19.20;;;;;;;-2.18;72.31;100036.23;106053;1273;22798;-61
2022/02/14 05:36:22;;;;;;;48.30;17.20;;;;;;;-2.17;72.39;100041.64;105810;1273;22834;-61
2022/02/14 05:38:51;;;;;;;41.90;16.10;;;;;;;-2.18;72.23;100044.59;105995;1274;22684;-59
2022/02/14 05:41:21;;;;;;;34.40;13.20;;;;;;;-2.19;72.25;100043.13;105732;1273;22769;-61
2022/02/14 05:43:50;;;;;;;41.00;14.20;;;;;;;-2.21;72.28;100041.88;105863;1273;22561;-61
2022/02/14 05:46:18;;;;;;;44.80;15.30;;;;;;;-2.20;72.36;100041.56;105813;1273;24395;-61
2022/02/14 05:48:48;;;;;;;39.20;13.10;;;;;;;-2.20;72.45;100043.98;105875;1273;24294;-59
2022/02/14 05:51:17;;;;;;;44.70;16.30;;;;;;;-2.20;72.39;100045.00;106001;1273;24350;-60
2022/02/14 05:53:46;;;;;;;43.50;17.40;;;;;;;-2.19;72.52;100044.21;105773;1273;22618;-61
2022/02/14 05:56:16;;;;;;;51.20;18.00;;;;;;;-2.19;72.51;100042.74;105855;1273;22800;-59
2022/02/14 05:58:45;;;;;;;38.40;15.80;;;;;;;-2.19;72.37;100046.80;106160;1273;22688;-60
2022/02/14 06:01:13;;;;;;;43.40;16.20;;;;;;;-2.18;72.54;100051.23;105899;1271;24413;-66
2022/02/14 06:03:42;;;;;;;46.80;18.80;;;;;;;-2.16;72.47;100053.25;105824;1273;23704;-68
2022/02/14 06:06:10;;;;;;;47.40;18.10;;;;;;;-2.15;72.46;100059.04;105775;1273;22550;-62
2022/02/14 06:08:39;;;;;;;47.00;18.00;;;;;;;-2.13;72.47;100057.47;105880;1273;24455;-62
2022/02/14 06:11:08;;;;;;;43.00;16.90;;;;;;;-2.12;72.48;100060.52;106113;1273;22729;-62
2022/02/14 06:13:37;;;;;;;48.90;18.80;;;;;;;-2.09;72.51;100058.45;105759;1274;24246;-63
2022/02/14 06:16:06;;;;;;;43.50;17.80;;;;;;;-2.08;72.48;100056.27;105813;1271;25541;-63
2022/02/14 06:18:35;;;;;;;37.90;16.50;;;;;;;-2.07;72.57;100060.55;105973;1271;22685;-63
2022/02/14 06:21:03;;;;;;;41.50;15.00;;;;;;;-2.05;72.64;100060.38;105898;1273;23319;-65
2022/02/14 06:23:32;;;;;;;40.30;14.80;;;;;;;-2.03;72.71;100063.66;105776;1273;26660;-63
2022/02/14 06:26:02;;;;;;;39.80;13.50;;;;;;;-2.01;72.59;100064.67;105683;1273;22699;-61
2022/02/14 06:28:32;;;;;;;42.70;13.40;;;;;;;-1.98;72.66;100061.05;105937;1273;24420;-69
2022/02/14 06:31:00;;;;;;;35.10;13.20;;;;;;;-1.97;72.67;100062.16;105856;1273;24799;-63
2022/02/14 06:33:29;;;;;;;37.70;13.10;;;;;;;-1.95;72.77;100061.75;105718;1273;22681;-62
2022/02/14 06:35:58;;;;;;;44.70;15.90;;;;;;;-1.92;72.83;100061.03;105794;1273;25515;-63
2022/02/14 06:38:26;;;;;;;43.60;16.30;;;;;;;-1.89;72.92;100058.83;105864;1274;25976;-62
2022/02/14 06:40:54;;;;;;;43.70;17.50;;;;;;;-1.86;72.91;100056.61;105711;1273;22678;-62
2022/02/14 06:43:23;;;;;;;37.50;14.30;;;;;;;-1.83;72.86;100058.16;105921;1271;22666;-62
2022/02/14 06:45:52;;;;;;;29.60;13.00;;;;;;;-1.79;72.83;100061.42;105829;1271;22710;-60
2022/02/14 06:48:20;;;;;;;40.10;12.40;;;;;;;-1.75;72.99;100062.88;106414;1271;25643;-63
2022/02/14 06:50:49;;;;;;;35.10;14.50;;;;;;;-1.71;73.07;100063.40;105786;1273;23034;-61
2022/02/14 06:53:19;;;;;;;38.10;14.80;;;;;;;-1.68;72.98;100063.15;106334;1272;22564;-60
2022/02/14 06:55:48;;;;;;;40.00;15.40;;;;;;;-1.64;73.12;100067.66;106036;1274;25379;-60
2022/02/14 06:58:16;;;;;;;37.10;14.00;;;;;;;-1.60;73.23;100071.85;106268;1273;25568;-61
2022/02/14 07:00:45;;;;;;;31.80;12.50;;;;;;;-1.56;73.12;100069.33;105798;1273;22718;-60
2022/02/14 07:03:15;;;;;;;32.00;12.10;;;;;;;-1.51;73.19;100070.48;106003;1271;23316;-62
2022/02/14 07:05:44;;;;;;;25.70;8.40;;;;;;;-1.46;73.31;100066.61;106074;1273;22688;-61
2022/02/14 07:08:13;;;;;;;32.50;11.20;;;;;;;-1.40;73.29;100069.22;105863;1273;22722;-62
2022/02/14 07:10:42;;;;;;;32.40;11.80;;;;;;;-1.34;73.38;100066.36;105683;1273;22661;-61
2022/02/14 07:13:11;;;;;;;26.80;10.00;;;;;;;-1.28;73.44;100072.02;105928;1272;24397;-63
2022/02/14 07:15:39;;;;;;;29.10;10.50;;;;;;;-1.21;73.42;100069.61;105940;1273;22962;-62
2022/02/14 07:18:12;;;;;;;30.40;11.30;;;;;;;-1.14;73.37;100069.55;105615;1273;22997;-61
2022/02/14 07:20:42;;;;;;;29.70;11.00;;;;;;;-1.06;73.46;100068.16;105882;1273;22799;-60
2022/02/14 07:23:11;;;;;;;29.60;9.80;;;;;;;-0.99;73.38;100074.44;105779;1273;22664;-61
2022/02/14 07:25:40;;;;;;;29.60;11.20;;;;;;;-0.91;73.57;100070.85;105963;1271;25584;-61
2022/02/14 07:28:08;;;;;;;33.40;12.20;;;;;;;-0.84;73.60;100071.48;105925;1273;25773;-62
2022/02/14 07:30:37;;;;;;;29.20;10.40;;;;;;;-0.78;73.58;100067.66;106004;1273;23795;-61
2022/02/14 07:33:06;;;;;;;26.60;10.00;;;;;;;-0.69;73.53;100065.23;106085;1273;24221;-61
2022/02/14 07:35:35;;;;;;;31.40;9.90;;;;;;;-0.60;73.39;100063.32;106061;1273;22783;-62
2022/02/14 07:38:04;;;;;;;29.80;11.10;;;;;;;-0.48;73.47;100061.39;105838;1273;25676;-60
2022/02/14 07:40:33;;;;;;;29.00;10.90;;;;;;;-0.37;73.45;100066.05;106132;1273;24205;-59
2022/02/14 07:43:01;;;;;;;29.80;10.50;;;;;;;-0.27;73.47;100062.48;105984;1273;24403;-60
2022/02/14 07:45:30;;;;;;;36.90;12.00;;;;;;;-0.16;73.31;100063.13;106261;1273;25585;-60
2022/02/14 07:47:58;;;;;;;32.90;11.10;;;;;;;-0.05;73.24;100061.27;106015;1273;22648;-60
2022/02/14 07:50:29;;;;;;;29.30;9.90;;;;;;;0.06;73.17;100061.44;105697;1274;25389;-60
2022/02/14 07:52:58;;;;;;;30.10;10.30;;;;;;;0.16;73.01;100058.64;106405;1273;25620;-59
2022/02/14 07:55:27;;;;;;;31.70;11.40;;;;;;;0.28;72.93;100061.13;105808;1273;24326;-60
2022/02/14 07:57:55;;;;;;;32.10;9.90;;;;;;;0.40;72.75;100062.45;105976;1273;22565;-62
2022/02/14 08:00:24;;;;;;;27.80;10.60;;;;;;;0.51;72.60;100061.81;105648;1273;24259;-63
2022/02/14 08:02:53;;;;;;;27.00;8.70;;;;;;;0.61;72.68;100066.69;106096;1273;26882;-61
2022/02/14 08:05:23;;;;;;;27.00;9.80;;;;;;;0.68;72.49;100060.06;106060;1273;22609;-60
2022/02/14 08:07:51;;;;;;;28.70;11.00;;;;;;;0.76;72.40;100059.94;105859;1273;26472;-62
2022/02/14 08:10:20;;;;;;;32.60;12.50;;;;;;;0.85;72.52;100058.83;105877;1273;25489;-61
2022/02/14 08:12:49;;;;;;;31.70;12.60;;;;;;;0.90;72.56;100052.48;105892;1272;24296;-59
2022/02/14 08:15:18;;;;;;;33.80;11.80;;;;;;;0.95;72.42;100053.66;105908;1273;22587;-61
2022/02/14 08:17:48;;;;;;;31.00;12.20;;;;;;;0.99;72.32;100053.41;106025;1272;22535;-60
2022/02/14 08:20:17;;;;;;;27.70;9.40;;;;;;;1.03;72.31;100049.03;105855;1273;25044;-60
2022/02/14 08:22:46;;;;;;;31.60;10.40;;;;;;;1.12;72.28;100048.17;106017;1273;22552;-61
2022/02/14 08:25:14;;;;;;;28.50;10.80;;;;;;;1.23;72.22;100050.17;105917;1273;23967;-61
2022/02/14 08:27:43;;;;;;;29.80;10.00;;;;;;;1.32;72.22;100055.34;106119;1272;22553;-59
2022/02/14 08:30:13;;;;;;;28.80;9.60;;;;;;;1.40;72.03;100052.36;106218;1273;22543;-64
2022/02/14 08:32:43;;;;;;;28.70;9.60;;;;;;;1.50;71.90;100046.13;106183;1273;25567;-62
2022/02/14 08:35:14;;;;;;;23.80;8.40;;;;;;;1.58;71.86;100049.81;105732;1273;22554;-60
2022/02/14 08:37:42;;;;;;;26.10;9.60;;;;;;;1.69;71.66;100049.20;105888;1273;22542;-60
2022/02/14 08:40:14;;;;;;;23.10;7.40;;;;;;;1.79;71.53;100050.34;105921;1273;22579;-60
2022/02/14 08:42:43;;;;;;;24.60;8.30;;;;;;;1.91;71.30;100046.72;105809;1271;22561;-61
2022/02/14 08:45:12;;;;;;;25.00;7.70;;;;;;;2.01;71.18;100045.23;105677;1271;25612;-62
2022/02/14 08:47:43;;;;;;;25.10;7.70;;;;;;;2.12;70.94;100043.11;105823;1272;24297;-60
2022/02/14 08:50:11;;;;;;;;;;;;;;;2.23;70.70;100044.20;105790;1273;22757;-60
2022/02/14 08:52:39;;;;;;;22.10;7.70;;;;;;;2.33;70.55;100047.92;105689;1273;22499;-61
2022/02/14 08:55:11;;;;;;;25.70;8.40;;;;;;;2.41;70.54;100043.33;105909;1272;22649;-62
2022/02/14 08:57:40;;;;;;;28.10;9.00;;;;;;;2.48;70.41;100040.42;105782;1273;24372;-62
2022/02/14 09:00:11;;;;;;;26.20;8.60;;;;;;;2.53;70.38;100036.29;105515;1271;22567;-61
2022/02/14 09:02:41;;;;;;;22.50;7.50;;;;;;;2.59;70.12;100033.77;105691;1273;22595;-60
2022/02/14 09:05:10;;;;;;;24.70;8.20;;;;;;;2.68;70.00;100031.20;105554;1271;22492;-63
2022/02/14 09:07:39;;;;;;;24.30;8.00;;;;;;;2.74;69.83;100031.99;106906;1271;24424;-60
2022/02/14 09:10:11;;;;;;;24.50;8.60;;;;;;;2.84;69.60;100033.23;106319;1273;22565;-61
2022/02/14 09:12:40;;;;;;;24.20;8.70;;;;;;;2.96;69.62;100023.48;105976;1271;23769;-62
2022/02/14 09:15:10;;;;;;;24.50;7.70;;;;;;;3.02;69.45;100019.92;105717;1271;22562;-59
2022/02/14 09:17:38;;;;;;;24.30;7.20;;;;;;;3.07;69.21;100016.50;106201;1271;24253;-60
2022/02/14 09:20:09;;;;;;;25.50;8.80;;;;;;;3.15;69.21;100017.48;105714;1273;25672;-62
2022/02/14 09:22:38;;;;;;;25.40;7.40;;;;;;;3.22;69.16;100013.81;106261;1274;22581;-62
2022/02/14 09:25:09;;;;;;;20.80;7.30;;;;;;;3.31;68.71;100004.50;106261;1273;25325;-60
2022/02/14 09:27:37;;;;;;;26.20;8.00;;;;;;;3.41;68.67;100010.88;105770;1273;22560;-64
2022/02/14 09:30:08;;;;;;;21.90;6.80;;;;;;;3.46;68.61;100005.59;105573;1273;25395;-61
2022/02/14 09:32:36;;;;;;;;;;;;;;;3.55;68.39;100005.89;105501;1273;291186;-62
2022/02/14 09:35:08;;;;;;;22.60;7.10;;;;;;;3.63;68.16;100006.92;105647;1273;22556;-62
2022/02/14 09:37:37;;;;;;;20.90;7.50;;;;;;;3.68;67.92;100004.43;106167;1273;24384;-62
2022/02/14 09:40:08;;;;;;;20.20;6.50;;;;;;;3.74;67.78;99997.05;106386;1273;22583;-61
2022/02/14 09:42:39;;;;;;;21.10;6.80;;;;;;;3.82;67.73;99997.37;105795;1273;25353;-61
2022/02/14 09:45:10;;;;;;;19.10;6.60;;;;;;;3.90;67.72;99991.08;105772;1273;25243;-62
2022/02/14 09:47:39;;;;;;;20.00;6.90;;;;;;;3.96;67.69;99987.80;105702;1270;22608;-63
2022/02/14 09:50:10;;;;;;;22.60;7.20;;;;;;;4.02;67.65;99988.95;105939;1273;22576;-61
2022/02/14 09:52:39;;;;;;;20.60;6.30;;;;;;;4.09;67.57;99986.55;105848;1273;22573;-62
2022/02/14 09:55:09;;;;;;;24.20;6.60;;;;;;;4.16;67.52;99985.38;106018;1271;25413;-61
2022/02/14 09:57:38;;;;;;;29.60;9.50;;;;;;;4.21;67.52;99984.91;105770;1273;24270;-61
2022/02/14 10:00:10;;;;;;;26.40;8.50;;;;;;;4.24;67.11;99979.61;105814;1273;22771;-60
2022/02/14 10:02:38;;;;;;;22.10;7.20;;;;;;;4.31;67.05;99985.56;105844;1273;22568;-59
2022/02/14 10:05:12;;;;;;;22.60;7.50;;;;;;;4.39;66.90;99988.44;105791;1273;26570;-61
2022/02/14 10:07:43;;;;;;;21.00;7.30;;;;;;;4.44;66.86;99988.14;106078;1270;25260;-60
2022/02/14 10:10:15;;;;;;;25.80;8.00;;;;;;;4.45;66.93;99988.73;105869;1273;22548;-60
2022/02/14 10:12:47;;;;;;;20.70;6.70;;;;;;;4.45;66.68;99987.05;105868;1273;22744;-60
2022/02/14 10:15:16;;;;;;;18.20;6.20;;;;;;;4.53;66.49;99990.30;105953;1273;22557;-61
2022/02/14 10:17:47;;;;;;;17.00;6.30;;;;;;;4.56;66.36;99985.69;106054;1273;25333;-60
2022/02/14 10:20:19;;;;;;;19.20;5.80;;;;;;;4.61;66.21;99982.91;105794;1273;22532;-60
2022/02/14 10:22:56;;;;;;;21.00;7.10;;;;;;;4.66;65.78;99977.61;106015;1272;22594;-60
2022/02/14 10:25:35;;;;;;;18.60;6.70;;;;;;;4.72;65.46;99972.75;105895;1273;24259;-60
2022/02/14 10:28:21;;;;;;;15.20;5.00;;;;;;;4.76;65.55;99966.84;105955;1273;25470;-60
2022/02/14 10:30:59;;;;;;;17.60;5.60;;;;;;;4.81;65.25;99967.71;105930;1273;22741;-60
2022/02/14 10:33:47;;;;;;;20.20;6.20;;;;;;;4.88;65.06;99954.96;106039;1273;22548;-60
2022/02/14 10:36:25;;;;;;;18.40;5.50;;;;;;;4.96;64.84;99946.83;105879;1273;22679;-60
2022/02/14 10:38:53;;;;;;;20.70;5.90;;;;;;;5.04;64.62;99952.24;106243;1272;22589;-63
2022/02/14 10:41:23;;;;;;;17.70;5.70;;;;;;;5.13;64.67;99948.35;106340;1272;25354;-62
2022/02/14 10:43:52;;;;;;;18.60;5.60;;;;;;;5.19;64.13;99946.09;105882;1273;24218;-60
2022/02/14 10:46:22;;;;;;;18.50;5.90;;;;;;;5.22;64.08;99935.45;106033;1273;22622;-60
2022/02/14 10:48:58;;;;;;;17.60;5.40;;;;;;;5.25;64.14;99932.73;106231;1272;25261;-61
2022/02/14 10:51:27;;;;;;;18.50;6.50;;;;;;;5.30;63.70;99932.70;106166;1273;22568;-60
2022/02/14 10:53:56;;;;;;;18.70;6.00;;;;;;;5.33;63.58;99928.89;106154;1273;22578;-60
2022/02/14 10:56:26;;;;;;;18.40;5.50;;;;;;;5.37;63.73;99924.30;106127;1273;24037;-61
2022/02/14 10:59:14;;;;;;;19.10;6.20;;;;;;;5.43;63.84;99912.16;105946;1273;22563;-60
2022/02/14 11:01:42;;;;;;;20.30;6.10;;;;;;;5.46;63.57;99915.02;105721;1273;25215;-59
2022/02/14 11:04:11;;;;;;;19.80;6.50;;;;;;;5.51;63.53;99917.13;105883;1272;25516;-60
2022/02/14 11:06:41;;;;;;;19.00;5.80;;;;;;;5.58;63.22;99905.80;105883;1273;22561;-60
2022/02/14 11:09:11;;;;;;;23.90;7.00;;;;;;;5.65;63.23;99908.63;105698;1271;22589;-61
2022/02/14 11:11:41;;;;;;;17.40;5.90;;;;;;;5.67;63.21;99903.21;105831;1273;24292;-61
2022/02/14 11:14:10;;;;;;;17.50;5.90;;;;;;;5.71;62.83;99904.20;105792;1273;22705;-59
2022/02/14 11:16:40;;;;;;;19.90;6.40;;;;;;;5.74;62.83;99901.14;105852;1273;23984;-61
2022/02/14 11:19:11;;;;;;;18.20;6.40;;;;;;;5.78;62.72;99896.88;106228;1271;24308;-61